Weather observations for the past three days for
Middleton Island Airport
Imperial (Metric)
Date Time (akdt) Wind (mph) Vis. (mi.) Weather Sky Cond. Temperature (ºF) Relative Humidity Wind Chill (°F) Heat Index (°F) Pressure Precipitation (in)
Air Dwpt 6 hour altimeter (in) sea level (mb) 1 hr 3 hr 6 hr
Max. Min.
06 08:56 SE 6 10.00 Light Rain BKN014 OVC065 54 54 100% 30.04 1017.2 0.01
06 07:56 SE 5 10.00 Overcast BKN007 OVC027 53.1 53.1 100% 30.05 1017.6
06 06:56 SE 6 10.00 Overcast SCT005 BKN012 OVC020 53.1 53.1 100% 30.05 1017.6 0.03
06 05:56 SE 8 4.00 Light Rain Fog/Mist SCT003 OVC009 53.1 53.1 100% 30.06 1017.8 0.01
06 04:56 SE 8 2.50 Light Rain Fog/Mist OVC003 53.1 53.1 100% 30.06 1018.1 0.02
06 03:56 E 3 1.50 Light Rain Fog/Mist OVC011 53.1 53.1 53.1 52 100% 30.07 1018.4
06 02:56 Calm 7.00 Overcast OVC007 52 52 100% 30.08 1018.8
06 01:56 Calm 2.50 Fog/Mist OVC005 53.1 53.1 100% 30.09 1019.0
06 00:56 Calm 4.00 Fog/Mist OVC005 53.1 53.1 100% 30.1 1019.3
05 23:56 W 6 4.00 Fog/Mist OVC005 53.1 53.1 100% 30.09 1019.1
05 22:56 W 6 6.00 Fog/Mist OVC005 53.1 53.1 100% 30.1 1019.3
05 21:56 W 7 9.00 Overcast OVC007 53.1 53.1 54 53.1 100% 30.1 1019.3
05 20:56 SW 7 10.00 Overcast BKN008 OVC014 53.1 53.1 100% 30.1 1019.2
05 19:53 SW 5 10.00 Overcast FEW008 OVC016 54 52 93% 30.1 1019.4
05 18:56 SW 8 10.00 Overcast OVC010 54 52 93% 30.1 1019.4
05 17:56 W 9 10.00 Overcast OVC010 54 53.1 97% 30.1 1019.5
05 16:56 W 10 3.00 Fog/Mist OVC003 54 54 100% 30.11 1019.5
05 15:56 SW 8 3.00 Fog/Mist OVC005 53.1 53.1 57.9 53.1 100% 30.11 1019.5
05 14:56 SW 7 3.00 Fog/Mist OVC003 54 54 100% 30.1 1019.2
05 13:56 SW 8 4.00 Fog/Mist OVC003 55.9 55.9 100% 30.1 1019.4
05 12:56 SW 8 1.00 Light Rain Fog/Mist OVC003 57 57 100% 30.11 1019.5
05 11:56 SW 13 9.00 Overcast OVC003 57.9 57.9 100% 30.1 1019.2
05 09:56 S 9 1.25 Fog/Mist OVC003 55.9 55.9 55.9 55 100% 30.11 1019.7
05 08:56 SW 8 4.00 Fog/Mist OVC007 55 55 100% 30.12 1019.8
05 07:56 SW 9 10.00 Overcast OVC011 55 55 100% 30.12 1019.9
05 06:56 SW 10 5.00 Fog/Mist OVC007 55 55 100% 30.12 1020.0
05 05:56 S 7 6.00 Fog/Mist OVC005 55 55 100% 30.13 1020.2
05 04:56 SW 9 4.00 Light Rain Fog/Mist OVC005 55 55 100% 30.14 1020.5
05 03:56 SW 9 0.25 Fog OVC003 55 55 55.9 55 100% 30.14 1020.7 0.01 0.01
05 02:56 SW 10 0.25 Light Rain Fog OVC003 55.9 55.9 100% 30.15 1021.1
05 01:56 SW 8 0.25 Light Rain Fog OVC003 55 55 100% 30.16 1021.3
05 00:56 SW 10 0.15 Light Rain Fog OVC003 55 55 100% 30.16 1021.2
04 23:56 SW 12 0.25 Light Rain Fog OVC003 55.9 55.9 100% 30.16 1021.2
04 22:56 SW 9 0.25 Light Rain Fog OVC003 55.9 55.9 100% 30.16 1021.3
04 21:56 SW 8 0.25 Light Rain Fog OVC003 55.9 55.9 55.9 54 100% 30.16 1021.3
04 20:56 SW 9 0.25 Light Rain Fog OVC003 55.9 55.9 100% 30.17 1021.5
04 19:56 SW 6 0.25 Light Rain Fog OVC003 55.9 55.9 100% 30.16 1021.5
04 18:56 SW 8 1.25 Light Rain Fog/Mist OVC003 55 55 100% 30.17 1021.7
04 17:56 SW 6 0.25 Fog OVC003 54 54 100% 30.18 1022.1
04 16:56 Vrbl 5 1.25 Fog/Mist OVC003 54 54 100% 30.19 1022.2
04 15:56 W 9 4.00 Fog/Mist OVC003 54 54 55.9 53.1 100% 30.19 1022.5
04 14:56 W 7 1.75 Fog/Mist OVC003 55 55 100% 30.19 1022.5
04 13:56 W 12 5.00 Fog/Mist OVC003 55 55 100% 30.2 1022.6
04 12:56 SW 10 1.50 Fog/Mist OVC003 55 55 100% 30.2 1022.7
04 11:56 SW 9 1.25 Fog/Mist OVC003 54 54 100% 30.19 1022.5
04 10:56 W 8 10.00 Overcast OVC005 54 53.1 97% 30.19 1022.3
04 09:56 W 8 10.00 Overcast BKN005 OVC042 53.1 53.1 54 53.1 100% 30.19 1022.2 0.01
04 08:56 W 7 10.00 Overcast OVC011 53.1 53.1 100% 30.18 1022.2 0.01
04 07:56 W 5 10.00 Overcast FEW002 OVC013 53.1 53.1 100% 30.18 1022.1
04 06:56 W 5 0.75 Fog/Mist OVC004 53.1 53.1 100% 30.18 1021.8
04 05:56 W 5 0.25 Fog BKN004 BKN009 OVC015 53.1 53.1 100% 30.17 1021.7
04 04:56 W 3 1.00 Fog/Mist OVC004 53.1 53.1 100% 30.17 1021.4
04 03:56 SW 5 0.75 Light Rain Fog/Mist OVC004 54 54 55 53.1 100% 30.16 1021.3
04 02:56 S 5 3.00 Light Rain Fog/Mist OVC008 53.1 53.1 100% 30.17 1021.5
04 01:56 S 8 10.00 Overcast OVC012 54 54 100% 30.17 1021.7
04 00:56 S 6 10.00 Overcast OVC006 55 55 100% 30.18 1021.9
03 23:56 SW 7 10.00 Mostly Cloudy BKN021 54 54 100% 30.17 1021.7
03 22:56 SW 6 10.00 Fair CLR 54 54 100% 30.17 1021.5
03 21:56 SW 6 10.00 Fair CLR 54 54 63 54 100% 30.17 1021.6
03 20:56 SW 6 10.00 Fair CLR 55 52 90% 30.17 1021.7
03 19:56 W 7 10.00 Fair CLR 57 55 93% 30.17 1021.6
03 18:56 SW 7 10.00 Fair CLR 60.1 55 84% 30.17 1021.4
03 17:56 W 6 10.00 Fair CLR 61 50 67% 30.16 1021.4
03 16:56 SW 5 10.00 Fair CLR 62.1 46 56% 30.17 1021.6
03 15:56 SW 5 10.00 Fair CLR 62.1 45 64 57 54% 30.16 1021.3
03 14:56 Vrbl 5 8.00 Fair CLR 63 39.9 43% 30.15 1020.9
03 13:56 Calm 10.00 Fair CLR 61 46.9 60% 30.16 1021.2
03 12:56 Calm 9.00 Fair CLR 60.1 48 65% 30.15 1020.8
03 11:56 W 5 10.00 Fair CLR 60.1 48.9 67% 30.13 1020.3
03 10:56 Calm 10.00 Fair CLR 59 48 67% 30.11 1019.6
03 09:56 N 3 10.00 Fair CLR 57.9 48 57.9 52 70% 30.1 1019.4
Date Time (akdt) Wind (mph) Vis. (mi.) Weather Sky Cond. Air Dwpt Max. Min. Relative Humidity Wind Chill (°F) Heat Index (°F) altimeter (in) sea level (mb) 1 hr 3 hr 6 hr
6 hour
Temperature (ºF) Pressure Precipitation (in)